createdAt,value
2018-05-13T00:02:27.901Z,80.40
2018-05-13T00:05:02.192Z,80.20
2018-05-13T00:07:36.492Z,80.00
2018-05-13T00:10:12.640Z,81.10
2018-05-13T00:12:46.953Z,81.10
2018-05-13T00:15:21.981Z,81.40
2018-05-13T00:17:56.550Z,81.40
2018-05-13T00:20:30.933Z,81.40
2018-05-13T00:23:05.380Z,81.60
2018-05-13T00:25:39.792Z,82.20
2018-05-13T00:28:14.075Z,82.10
2018-05-13T00:30:48.419Z,82.00
2018-05-13T00:33:22.732Z,82.40
2018-05-13T00:35:57.057Z,82.40
2018-05-13T00:38:31.680Z,82.60
2018-05-13T00:41:06.205Z,82.80
2018-05-13T00:43:40.648Z,83.10
2018-05-13T00:46:15.057Z,82.70
2018-05-13T00:48:49.402Z,82.50
2018-05-13T00:51:23.960Z,82.10
2018-05-13T00:53:58.609Z,82.80
2018-05-13T00:56:33.004Z,83.40
2018-05-13T00:59:07.477Z,82.60
2018-05-13T01:01:41.960Z,82.20
2018-05-13T01:04:16.396Z,81.60
2018-05-13T01:06:50.912Z,81.90
2018-05-13T01:09:25.254Z,82.00
2018-05-13T01:11:59.644Z,81.60
2018-05-13T01:14:34.174Z,82.50
2018-05-13T01:17:08.600Z,82.20
2018-05-13T01:19:43.025Z,82.10
2018-05-13T01:22:17.537Z,81.70
2018-05-13T01:24:51.864Z,81.40
2018-05-13T01:27:26.248Z,81.40
2018-05-13T01:30:01.529Z,81.60
2018-05-13T01:32:35.944Z,81.60
2018-05-13T01:35:10.452Z,81.80
2018-05-13T01:37:44.889Z,82.10
2018-05-13T01:40:19.320Z,82.20
2018-05-13T01:42:53.800Z,81.90
2018-05-13T01:45:28.220Z,81.90
2018-05-13T01:48:02.789Z,81.90
2018-05-13T01:50:37.041Z,81.90
2018-05-13T01:53:12.355Z,82.20
2018-05-13T01:55:46.635Z,82.10
2018-05-13T01:58:21.056Z,82.20
2018-05-13T02:00:55.800Z,82.10
2018-05-13T02:03:30.169Z,83.00
2018-05-13T02:06:04.593Z,82.50
2018-05-13T02:08:39.070Z,82.40
2018-05-13T02:11:13.600Z,82.30
2018-05-13T02:13:48.133Z,82.30
2018-05-13T02:16:22.529Z,83.50
2018-05-13T02:18:56.834Z,84.00
2018-05-13T02:21:31.272Z,84.20
2018-05-13T02:24:05.569Z,84.30
2018-05-13T02:26:40.624Z,84.70
2018-05-13T02:29:15.301Z,84.60
2018-05-13T02:31:49.589Z,84.30
2018-05-13T02:34:23.988Z,84.70
2018-05-13T02:36:58.400Z,84.50
2018-05-13T02:39:32.936Z,84.60
2018-05-13T02:42:08.092Z,84.40
2018-05-13T02:44:43.272Z,84.10
2018-05-13T02:47:17.652Z,84.10
2018-05-13T02:49:52.093Z,83.70
2018-05-13T02:52:26.577Z,84.10
2018-05-13T02:55:00.911Z,83.70
2018-05-13T02:57:35.527Z,83.40
2018-05-13T03:00:10.041Z,83.80
2018-05-13T03:02:44.669Z,83.10
2018-05-13T03:05:19.121Z,82.80
2018-05-13T03:07:53.497Z,82.30
2018-05-13T03:10:28.533Z,84.10
2018-05-13T03:13:02.983Z,84.00
2018-05-13T03:15:37.352Z,84.90
2018-05-13T03:18:13.364Z,85.40
2018-05-13T03:20:47.652Z,85.40
2018-05-13T03:23:22.078Z,85.80
2018-05-13T03:25:56.713Z,84.50
2018-05-13T03:28:31.224Z,84.40
2018-05-13T03:31:06.341Z,85.60
2018-05-13T03:33:42.317Z,86.30
2018-05-13T03:36:16.765Z,86.30
2018-05-13T03:38:52.173Z,84.50
2018-05-13T03:41:26.616Z,84.50
2018-05-13T03:44:01.141Z,84.30
2018-05-13T03:46:35.419Z,83.50
2018-05-13T03:49:09.850Z,83.20
2018-05-13T03:51:44.189Z,83.80
2018-05-13T03:54:18.556Z,85.40
2018-05-13T03:56:53.854Z,86.70
2018-05-13T03:59:28.373Z,86.70
2018-05-13T04:02:02.744Z,87.10
2018-05-13T04:04:37.817Z,86.40
2018-05-13T04:07:12.937Z,87.10
2018-05-13T04:09:59.139Z,87.10
2018-05-13T04:12:45.492Z,87.70
2018-05-13T04:15:25.416Z,89.10
2018-05-13T04:17:59.800Z,88.90
2018-05-13T04:20:35.017Z,87.70
2018-05-13T04:23:09.486Z,87.60
2018-05-13T04:25:43.918Z,87.40
2018-05-13T04:28:18.440Z,88.00
2018-05-13T04:30:52.692Z,88.90
2018-05-13T04:33:27.288Z,87.70
2018-05-13T04:36:01.700Z,87.70
2018-05-13T04:38:36.204Z,87.30
2018-05-13T04:41:10.576Z,87.40
2018-05-13T04:43:45.013Z,81.40
2018-05-13T04:46:20.101Z,71.70
2018-05-13T04:48:54.435Z,71.30
2018-05-13T04:51:29.045Z,68.90
2018-05-13T04:54:03.573Z,67.30
2018-05-13T04:56:37.993Z,73.60
2018-05-13T04:59:12.632Z,81.20
2018-05-13T05:01:47.028Z,84.50
2018-05-13T05:04:21.384Z,84.90
2018-05-13T05:06:56.080Z,87.30
2018-05-13T05:09:30.725Z,87.50
2018-05-13T05:12:05.160Z,86.40
2018-05-13T05:14:39.668Z,86.70
2018-05-13T05:17:14.068Z,87.30
2018-05-13T05:19:49.320Z,87.80
2018-05-13T05:22:23.964Z,87.70
2018-05-13T05:24:58.557Z,88.50
2018-05-13T05:27:32.963Z,89.00
2018-05-13T05:30:07.385Z,88.80
2018-05-13T05:32:42.032Z,88.80
2018-05-13T05:35:16.536Z,89.30
2018-05-13T05:37:50.937Z,89.20
2018-05-13T05:40:25.271Z,89.90
2018-05-13T05:42:59.704Z,89.40
2018-05-13T05:45:33.997Z,90.20
2018-05-13T05:48:08.540Z,90.10
2018-05-13T05:50:42.953Z,88.80
2018-05-13T05:53:17.316Z,89.10
2018-05-13T05:55:53.327Z,87.70
2018-05-13T05:58:27.649Z,87.70
2018-05-13T06:01:02.328Z,87.90
2018-05-13T06:03:36.811Z,87.90
2018-05-13T06:06:11.241Z,87.20
2018-05-13T06:08:45.651Z,85.30
2018-05-13T06:11:20.074Z,85.90
2018-05-13T06:13:54.584Z,84.40
2018-05-13T06:16:29.021Z,85.00
2018-05-13T06:19:03.445Z,85.30
2018-05-13T06:21:38.045Z,85.00
2018-05-13T06:24:12.476Z,84.30
2018-05-13T06:26:47.115Z,83.70
2018-05-13T06:29:21.641Z,83.60
2018-05-13T06:31:56.124Z,81.20
2018-05-13T06:34:30.360Z,83.50
2018-05-13T06:37:04.900Z,80.40
2018-05-13T06:39:39.489Z,79.50
2018-05-13T06:42:14.008Z,78.90
2018-05-13T06:44:48.570Z,77.50
2018-05-13T06:47:23.592Z,79.40
2018-05-13T06:49:58.247Z,79.30
2018-05-13T06:52:32.525Z,78.40
2018-05-13T06:55:07.072Z,77.90
2018-05-13T06:57:41.497Z,77.10
2018-05-13T07:00:16.733Z,74.50
2018-05-13T07:02:51.062Z,74.50
2018-05-13T07:05:25.350Z,72.20
2018-05-13T07:07:59.787Z,74.30
2018-05-13T07:10:34.941Z,72.80
2018-05-13T07:13:09.256Z,72.80
2018-05-13T07:15:43.708Z,73.80
2018-05-13T07:18:18.889Z,71.60
2018-05-13T07:20:53.932Z,73.80
2018-05-13T07:23:28.572Z,73.80
2018-05-13T07:26:03.067Z,74.20
2018-05-13T07:28:37.549Z,73.80
2018-05-13T07:31:11.968Z,72.70
2018-05-13T07:33:46.330Z,74.30
2018-05-13T07:36:20.736Z,74.00
2018-05-13T07:38:55.133Z,74.00
2018-05-13T07:41:29.621Z,73.70
2018-05-13T07:44:04.961Z,77.00
2018-05-13T07:46:39.291Z,76.90
2018-05-13T07:49:13.659Z,73.90
2018-05-13T07:51:48.043Z,72.20
2018-05-13T07:54:22.417Z,71.30
2018-05-13T07:56:56.947Z,66.50
2018-05-13T07:59:32.917Z,64.70
2018-05-13T08:02:07.408Z,64.60
2018-05-13T08:04:41.804Z,64.10
2018-05-13T08:07:16.261Z,61.70
2018-05-13T08:09:51.421Z,62.40
2018-05-13T08:12:26.116Z,62.30
2018-05-13T08:15:00.506Z,59.10
2018-05-13T08:17:35.592Z,58.10
2018-05-13T08:20:10.028Z,58.10
2018-05-13T08:22:44.351Z,57.30
2018-05-13T08:25:19.521Z,56.10
2018-05-13T08:27:53.908Z,56.10
2018-05-13T08:30:29.084Z,56.10
2018-05-13T08:33:04.192Z,56.50
2018-05-13T08:35:38.713Z,55.50
2018-05-13T08:38:13.220Z,55.50
2018-05-13T08:40:47.861Z,55.00
2018-05-13T08:43:23.011Z,54.80
2018-05-13T08:45:57.382Z,54.70
2018-05-13T08:48:31.728Z,55.50
2018-05-13T08:51:06.162Z,54.20
2018-05-13T08:53:40.670Z,56.00
2018-05-13T08:56:15.752Z,55.90
2018-05-13T08:58:50.048Z,55.80
2018-05-13T09:01:24.468Z,54.30
2018-05-13T09:03:59.075Z,54.80
2018-05-13T09:06:33.593Z,55.10
2018-05-13T09:09:08.125Z,53.50
2018-05-13T09:11:43.282Z,53.50
2018-05-13T09:14:17.745Z,53.50
2018-05-13T09:16:52.196Z,55.70
2018-05-13T09:19:26.720Z,53.50
2018-05-13T09:22:01.352Z,53.10
2018-05-13T09:24:35.676Z,52.90
2018-05-13T09:27:10.120Z,54.10
2018-05-13T09:29:44.545Z,54.10
2018-05-13T09:32:18.953Z,54.50
2018-05-13T09:34:53.252Z,53.30
2018-05-13T09:37:27.864Z,53.20
2018-05-13T09:40:02.177Z,54.60
2018-05-13T09:42:36.705Z,55.10
2018-05-13T09:45:11.954Z,53.90
2018-05-13T09:47:47.012Z,52.20
2018-05-13T09:50:21.312Z,52.20
2018-05-13T09:52:55.830Z,54.00
2018-05-13T09:55:30.104Z,51.60
2018-05-13T09:58:04.464Z,51.30
2018-05-13T10:00:38.988Z,52.10
2018-05-13T10:03:13.655Z,51.70
2018-05-13T10:05:48.177Z,51.20
2018-05-13T10:08:23.265Z,53.20
2018-05-13T10:10:57.697Z,53.20
2018-05-13T10:13:31.995Z,52.90
2018-05-13T10:16:06.436Z,51.90
2018-05-13T10:18:40.960Z,52.20
2018-05-13T10:21:15.581Z,51.50
2018-05-13T10:23:49.988Z,52.00
2018-05-13T10:26:24.444Z,53.10
2018-05-13T10:28:58.713Z,52.30
2018-05-13T10:31:34.089Z,53.20
2018-05-13T10:34:08.596Z,53.40
2018-05-13T10:36:42.897Z,52.20
2018-05-13T10:39:17.312Z,51.60
2018-05-13T10:41:51.656Z,51.90
2018-05-13T10:44:25.937Z,53.10
2018-05-13T10:47:00.401Z,53.00
2018-05-13T10:49:35.608Z,53.70
2018-05-13T10:52:09.972Z,53.70
2018-05-13T10:54:44.481Z,51.80
2018-05-13T10:57:19.104Z,52.60
2018-05-13T10:59:53.552Z,52.80
2018-05-13T11:02:27.877Z,53.30
2018-05-13T11:05:02.270Z,50.90
2018-05-13T11:07:36.561Z,52.80
2018-05-13T11:10:10.934Z,54.30
2018-05-13T11:12:45.292Z,55.90
2018-05-13T11:15:19.485Z,51.60
2018-05-13T11:17:53.931Z,53.10
2018-05-13T11:20:28.404Z,51.00
2018-05-13T11:23:02.698Z,52.60
2018-05-13T11:25:36.988Z,53.30
2018-05-13T11:28:11.443Z,51.40
2018-05-13T11:30:46.064Z,52.90
2018-05-13T11:33:20.496Z,52.90
2018-05-13T11:35:54.988Z,52.70
2018-05-13T11:38:29.332Z,51.70
2018-05-13T11:41:03.776Z,51.40
2018-05-13T11:43:38.223Z,52.60
2018-05-13T11:46:12.498Z,51.90
2018-05-13T11:48:46.887Z,54.10
2018-05-13T11:51:21.540Z,52.80
2018-05-13T11:53:56.030Z,52.30
2018-05-13T11:56:30.421Z,52.00
2018-05-13T11:59:04.804Z,52.30
2018-05-13T12:01:39.302Z,52.90
2018-05-13T12:04:13.722Z,52.30
2018-05-13T12:06:48.116Z,52.90
2018-05-13T12:09:22.436Z,53.60
2018-05-13T12:11:56.917Z,53.40
2018-05-13T12:14:31.327Z,52.80
2018-05-13T12:17:05.729Z,52.70
2018-05-13T12:19:40.195Z,53.70
2018-05-13T12:22:16.320Z,52.70
2018-05-13T12:24:50.847Z,52.70
2018-05-13T12:27:25.312Z,53.50
2018-05-13T12:29:59.790Z,54.50
2018-05-13T12:32:34.215Z,54.30
2018-05-13T12:35:08.496Z,54.40
2018-05-13T12:37:43.047Z,53.80
2018-05-13T12:40:17.322Z,53.70
2018-05-13T12:42:51.894Z,54.60
2018-05-13T12:45:26.186Z,54.30
2018-05-13T12:48:00.767Z,53.30
2018-05-13T12:50:35.257Z,54.40
2018-05-13T12:53:09.568Z,54.40
2018-05-13T12:55:43.895Z,54.80
2018-05-13T12:58:18.343Z,53.80
2018-05-13T13:00:52.755Z,54.40
2018-05-13T13:03:27.147Z,54.80
2018-05-13T13:06:01.545Z,55.10
2018-05-13T13:08:36.047Z,54.90
2018-05-13T13:11:11.215Z,63.20
2018-05-13T13:13:45.566Z,63.10
2018-05-13T13:16:19.851Z,84.40
2018-05-13T13:18:55.172Z,77.20
2018-05-13T13:21:29.573Z,77.10
2018-05-13T13:24:04.152Z,70.30
2018-05-13T13:26:38.421Z,64.40
2018-05-13T13:29:12.666Z,61.90
2018-05-13T13:31:47.168Z,60.00
2018-05-13T13:34:21.631Z,59.00
2018-05-13T13:36:56.261Z,58.30
2018-05-13T13:39:30.537Z,58.10
2018-05-13T13:42:05.316Z,57.20
2018-05-13T13:44:39.788Z,56.70
2018-05-13T13:47:14.923Z,55.90
2018-05-13T13:49:49.488Z,55.90
2018-05-13T13:52:23.860Z,55.70
2018-05-13T13:54:58.508Z,55.40
2018-05-13T13:57:32.970Z,55.10
2018-05-13T14:00:07.408Z,54.90
2018-05-13T14:02:41.768Z,54.70
2018-05-13T14:05:16.824Z,54.40
2018-05-13T14:07:51.175Z,54.30
2018-05-13T14:10:26.166Z,54.10
2018-05-13T14:13:00.424Z,54.10
2018-05-13T14:15:35.037Z,54.00
2018-05-13T14:18:09.414Z,54.60
2018-05-13T14:20:44.672Z,53.80
2018-05-13T14:23:19.104Z,53.70
2018-05-13T14:25:53.430Z,53.70
2018-05-13T14:28:27.759Z,53.70
2018-05-13T14:31:02.083Z,53.60
2018-05-13T14:33:37.440Z,53.80
2018-05-13T14:36:11.910Z,53.40
2018-05-13T14:38:46.411Z,53.30
2018-05-13T14:41:20.805Z,53.30
2018-05-13T14:43:55.313Z,53.50
2018-05-13T14:46:30.519Z,66.80
2018-05-13T14:49:05.066Z,66.80
2018-05-13T14:51:39.321Z,74.80
2018-05-13T14:54:13.814Z,74.40
2018-05-13T14:56:48.545Z,75.10
2018-05-13T14:59:22.817Z,75.90
2018-05-13T15:01:57.121Z,79.20
2018-05-13T15:04:31.504Z,80.20
2018-05-13T15:07:06.008Z,82.70
2018-05-13T15:09:40.283Z,83.30
2018-05-13T15:12:14.651Z,81.90
2018-05-13T15:14:49.170Z,81.00
2018-05-13T15:17:23.541Z,82.90
2018-05-13T15:19:57.933Z,81.80
2018-05-13T15:22:33.215Z,81.90
2018-05-13T15:25:07.801Z,79.80
2018-05-13T15:27:42.225Z,78.10
2018-05-13T15:30:18.161Z,82.70
2018-05-13T15:32:52.624Z,82.50
2018-05-13T15:35:27.101Z,81.10
2018-05-13T15:38:01.406Z,83.90
2018-05-13T15:40:35.729Z,83.20
2018-05-13T15:43:10.208Z,81.70
2018-05-13T15:45:44.472Z,82.20
2018-05-13T15:48:19.109Z,82.30
2018-05-13T15:50:53.616Z,80.70
2018-05-13T15:53:27.961Z,83.50
2018-05-13T15:56:02.364Z,85.10
2018-05-13T15:58:36.679Z,86.10
2018-05-13T16:01:11.624Z,84.60
2018-05-13T16:03:46.019Z,83.90
2018-05-13T16:06:20.632Z,81.30
2018-05-13T16:08:54.929Z,83.80
2018-05-13T16:11:29.285Z,85.00
2018-05-13T16:14:03.564Z,83.60
2018-05-13T16:16:38.049Z,82.00
2018-05-13T16:19:12.429Z,85.50
2018-05-13T16:21:46.721Z,85.90
2018-05-13T16:24:21.109Z,84.20
2018-05-13T16:26:55.732Z,85.30
2018-05-13T16:29:30.250Z,87.50
2018-05-13T16:32:04.748Z,86.00
2018-05-13T16:34:39.069Z,88.30
2018-05-13T16:37:13.372Z,88.20
2018-05-13T16:39:48.407Z,88.50
2018-05-13T16:42:22.718Z,88.50
2018-05-13T16:44:57.119Z,90.20
2018-05-13T16:47:31.558Z,89.40
2018-05-13T16:50:05.883Z,90.70
2018-05-13T16:52:40.193Z,89.10
2018-05-13T16:55:14.541Z,90.40
2018-05-13T16:57:49.110Z,90.10
2018-05-13T17:00:23.514Z,89.40
2018-05-13T17:02:57.912Z,89.00
2018-05-13T17:05:32.326Z,87.90
2018-05-13T17:08:06.609Z,85.30
2018-05-13T17:10:40.857Z,84.70
2018-05-13T17:13:15.408Z,84.40
2018-05-13T17:15:49.960Z,86.10
2018-05-13T17:18:24.253Z,86.50
2018-05-13T17:20:58.705Z,86.70
2018-05-13T17:23:33.088Z,86.20
2018-05-13T17:26:07.357Z,86.10
2018-05-13T17:28:41.956Z,86.40
2018-05-13T17:31:16.697Z,85.50
2018-05-13T17:33:51.281Z,86.30
2018-05-13T17:36:26.449Z,89.10
2018-05-13T17:39:01.292Z,89.00
2018-05-13T17:41:39.408Z,87.70
2018-05-13T17:44:16.808Z,89.10
2018-05-13T17:46:51.125Z,90.80
2018-05-13T17:49:25.521Z,90.30
2018-05-13T17:52:00.036Z,91.00
2018-05-13T17:54:34.516Z,90.60
2018-05-13T17:57:11.025Z,89.60
2018-05-13T17:59:45.508Z,86.20
2018-05-13T18:02:19.937Z,86.00
2018-05-13T18:04:54.285Z,87.60
2018-05-13T18:07:28.813Z,89.30
2018-05-13T18:10:03.377Z,86.80
2018-05-13T18:12:37.747Z,85.90
2018-05-13T18:15:13.627Z,85.60
2018-05-13T18:17:48.052Z,85.50
2018-05-13T18:20:23.224Z,89.20
2018-05-13T18:22:59.253Z,88.10
2018-05-13T18:25:33.591Z,88.10
2018-05-13T18:28:07.973Z,87.20
2018-05-13T18:30:42.477Z,87.70
2018-05-13T18:33:16.828Z,90.00
2018-05-13T18:35:51.340Z,89.20
2018-05-13T18:38:25.666Z,88.90
2018-05-13T18:41:00.414Z,88.00
2018-05-13T18:43:34.845Z,88.70
2018-05-13T18:46:09.440Z,90.00
2018-05-13T18:48:43.755Z,90.50
2018-05-13T18:51:18.099Z,89.30
2018-05-13T18:53:52.536Z,89.10
2018-05-13T18:56:26.910Z,90.10
2018-05-13T18:59:01.312Z,90.30
2018-05-13T19:01:35.757Z,89.50
2018-05-13T19:04:10.154Z,88.70
2018-05-13T19:06:44.484Z,88.00
2018-05-13T19:09:19.031Z,87.90
2018-05-13T19:11:53.450Z,88.50
2018-05-13T19:14:27.757Z,89.60
2018-05-13T19:17:02.156Z,89.40
2018-05-13T19:19:36.581Z,87.50
2018-05-13T19:22:11.024Z,87.60
2018-05-13T19:24:45.388Z,87.20
2018-05-13T19:27:19.800Z,88.80
2018-05-13T19:29:54.099Z,89.00
2018-05-13T19:32:28.480Z,89.20
2018-05-13T19:35:02.955Z,90.70
2018-05-13T19:37:37.238Z,91.10
2018-05-13T19:40:11.779Z,91.40
2018-05-13T19:42:46.188Z,91.40
2018-05-13T19:45:20.831Z,91.60
2018-05-13T19:47:55.338Z,91.50
2018-05-13T19:50:29.760Z,91.90
2018-05-13T19:53:04.153Z,91.90
2018-05-13T19:55:38.705Z,90.80
2018-05-13T19:58:13.098Z,91.70
2018-05-13T20:00:47.517Z,91.20
2018-05-13T20:03:22.797Z,91.60
2018-05-13T20:05:57.003Z,91.50
2018-05-13T20:08:31.509Z,90.60
2018-05-13T20:11:05.868Z,90.50
2018-05-13T20:13:40.277Z,90.60
2018-05-13T20:16:14.838Z,90.50
2018-05-13T20:18:49.278Z,90.10
2018-05-13T20:21:23.754Z,91.70
2018-05-13T20:23:58.122Z,91.10
2018-05-13T20:26:32.565Z,91.20
2018-05-13T20:29:06.890Z,91.00
2018-05-13T20:31:42.020Z,92.10
2018-05-13T20:34:16.564Z,92.10
2018-05-13T20:36:51.066Z,91.90
2018-05-13T20:39:25.369Z,91.80
2018-05-13T20:41:59.687Z,92.00
2018-05-13T20:44:34.025Z,92.40
2018-05-13T20:47:08.309Z,93.10
2018-05-13T20:49:42.894Z,92.20
2018-05-13T20:52:17.999Z,91.70
2018-05-13T20:54:52.406Z,91.70
2018-05-13T20:57:26.723Z,91.60
2018-05-13T21:00:01.034Z,92.30
2018-05-13T21:02:36.078Z,93.20
2018-05-13T21:05:10.663Z,93.20
2018-05-13T21:07:45.852Z,93.10
2018-05-13T21:10:20.199Z,93.10
2018-05-13T21:12:54.537Z,92.60
2018-05-13T21:15:28.837Z,92.80
2018-05-13T21:18:03.135Z,92.30
2018-05-13T21:20:37.593Z,91.90
2018-05-13T21:23:11.950Z,92.90
2018-05-13T21:25:46.258Z,92.70
2018-05-13T21:28:20.540Z,93.30
2018-05-13T21:30:54.867Z,93.30
2018-05-13T21:33:29.264Z,93.60
2018-05-13T21:36:03.681Z,93.30
2018-05-13T21:38:37.999Z,93.30
2018-05-13T21:41:12.509Z,94.00
2018-05-13T21:43:47.781Z,93.30
2018-05-13T21:46:22.118Z,93.30
2018-05-13T21:48:56.731Z,93.20
2018-05-13T21:51:31.132Z,93.40
2018-05-13T21:54:06.233Z,92.40
2018-05-13T21:56:40.658Z,92.40
2018-05-13T21:59:15.306Z,92.60
2018-05-13T22:01:49.789Z,92.80
2018-05-13T22:04:24.152Z,93.00
2018-05-13T22:06:58.476Z,93.00
2018-05-13T22:09:32.853Z,92.60
2018-05-13T22:12:07.159Z,92.70
2018-05-13T22:14:41.481Z,92.80
2018-05-13T22:17:15.774Z,93.20
2018-05-13T22:19:50.120Z,92.90
2018-05-13T22:22:24.532Z,93.20
2018-05-13T22:24:58.927Z,93.10
2018-05-13T22:27:33.382Z,93.30
2018-05-13T22:30:09.260Z,92.80
2018-05-13T22:32:43.709Z,92.80
2018-05-13T22:35:18.146Z,92.90
2018-05-13T22:37:53.161Z,93.20
2018-05-13T22:40:27.695Z,93.70
2018-05-13T22:43:02.201Z,92.40
2018-05-13T22:45:36.538Z,92.60
2018-05-13T22:48:11.054Z,92.90
2018-05-13T22:50:45.349Z,93.10
2018-05-13T22:53:19.787Z,93.00
2018-05-13T22:55:55.899Z,93.00
2018-05-13T22:58:30.539Z,93.00
2018-05-13T23:01:04.693Z,93.20
2018-05-13T23:03:39.098Z,93.00
2018-05-13T23:06:14.327Z,93.90
2018-05-13T23:08:48.679Z,93.90
2018-05-13T23:11:23.282Z,92.90
2018-05-13T23:13:57.719Z,92.90
2018-05-13T23:16:32.038Z,93.20
2018-05-13T23:19:06.455Z,93.40
2018-05-13T23:21:40.935Z,93.20
2018-05-13T23:24:15.237Z,93.60
2018-05-13T23:26:49.826Z,92.90
2018-05-13T23:29:25.792Z,93.10
2018-05-13T23:32:00.449Z,93.00
2018-05-13T23:34:35.082Z,93.00
2018-05-13T23:37:10.240Z,92.90
2018-05-13T23:39:44.645Z,92.80
2018-05-13T23:42:18.991Z,92.70
2018-05-13T23:44:53.368Z,93.20
2018-05-13T23:47:27.826Z,93.50
2018-05-13T23:50:02.466Z,93.60
2018-05-13T23:52:36.867Z,93.20
2018-05-13T23:55:12.108Z,93.30
2018-05-13T23:57:48.054Z,94.00
